createdAt,value
2018-09-22T00:01:08.235Z,97679.00
2018-09-22T00:03:37.958Z,97683.00
2018-09-22T00:06:07.904Z,97685.00
2018-09-22T00:08:42.323Z,97691.00
2018-09-22T00:11:12.076Z,97692.00
2018-09-22T00:13:41.892Z,97680.00
2018-09-22T00:16:11.808Z,97677.00
2018-09-22T00:18:41.495Z,97674.00
2018-09-22T00:21:11.362Z,97682.00
2018-09-22T00:23:41.040Z,97684.00
2018-09-22T00:26:10.758Z,97689.00
2018-09-22T00:28:40.420Z,97688.00
2018-09-22T00:31:10.894Z,97692.00
2018-09-22T00:33:40.790Z,97694.00
2018-09-22T00:36:10.754Z,97688.00
2018-09-22T00:38:40.381Z,97684.00
2018-09-22T00:41:10.572Z,97682.00
2018-09-22T00:43:40.294Z,97681.00
2018-09-22T00:46:10.178Z,97687.00
2018-09-22T00:48:39.845Z,97700.00
2018-09-22T00:51:15.202Z,97692.00
2018-09-22T00:53:44.890Z,97683.00
2018-09-22T00:56:14.626Z,97689.00
2018-09-22T00:58:44.364Z,97691.00
2018-09-22T01:01:14.156Z,97686.00
2018-09-22T01:03:43.886Z,97692.00
2018-09-22T01:06:14.000Z,97697.00
2018-09-22T01:09:00.935Z,97691.00
2018-09-22T01:11:30.638Z,97698.00
2018-09-22T01:14:00.349Z,97704.00
2018-09-22T01:16:30.035Z,97707.00
2018-09-22T01:18:59.847Z,97700.00
2018-09-22T01:21:35.528Z,97696.00
2018-09-22T01:24:05.336Z,97686.00
2018-09-22T01:26:35.031Z,97684.00
2018-09-22T01:29:04.751Z,97702.00
2018-09-22T01:31:34.420Z,97703.00
2018-09-22T01:34:04.240Z,97716.00
2018-09-22T01:36:33.979Z,97725.00
2018-09-22T01:39:04.931Z,97730.00
2018-09-22T01:41:34.687Z,97729.00
2018-09-22T01:44:04.400Z,97731.00
2018-09-22T01:46:34.236Z,97731.00
2018-09-22T01:49:04.219Z,97742.00
2018-09-22T01:51:34.579Z,97750.00
2018-09-22T01:54:06.339Z,97751.00
2018-09-22T01:56:36.018Z,97740.00
2018-09-22T01:59:05.371Z,97736.00
2018-09-22T02:01:34.765Z,97734.00
2018-09-22T02:04:04.185Z,97745.00
2018-09-22T02:06:33.497Z,97741.00
2018-09-22T02:09:02.971Z,97743.00
2018-09-22T02:11:32.496Z,97744.00
2018-09-22T02:14:02.190Z,97744.00
2018-09-22T02:16:31.947Z,97749.00
2018-09-22T02:19:01.717Z,97760.00
2018-09-22T02:21:31.351Z,97763.00
2018-09-22T02:24:01.124Z,97761.00
2018-09-22T02:26:30.774Z,97769.00
2018-09-22T02:29:00.527Z,97762.00
2018-09-22T02:31:30.195Z,97763.00
2018-09-22T02:33:59.884Z,97758.00
2018-09-22T02:36:29.653Z,97752.00
2018-09-22T02:38:59.506Z,97750.00
2018-09-22T02:41:29.191Z,97745.00
2018-09-22T02:43:58.963Z,97740.00
2018-09-22T02:46:28.799Z,97740.00
2018-09-22T02:48:58.557Z,97744.00
2018-09-22T02:51:28.362Z,97743.00
2018-09-22T02:53:58.255Z,97751.00
2018-09-22T02:56:28.219Z,97757.00
2018-09-22T02:58:57.941Z,97748.00
2018-09-22T03:01:27.778Z,97739.00
2018-09-22T03:03:57.439Z,97749.00
2018-09-22T03:06:27.362Z,97750.00
2018-09-22T03:08:57.016Z,97745.00
2018-09-22T03:11:27.011Z,97725.00
2018-09-22T03:13:56.727Z,97718.00
2018-09-22T03:16:26.430Z,97714.00
2018-09-22T03:18:56.471Z,97720.00
2018-09-22T03:21:26.190Z,97726.00
2018-09-22T03:23:55.866Z,97742.00
2018-09-22T03:26:25.951Z,97740.00
2018-09-22T03:28:55.700Z,97745.00
2018-09-22T03:31:25.843Z,97750.00
2018-09-22T03:33:55.511Z,97754.00
2018-09-22T03:36:25.216Z,97756.00
2018-09-22T03:38:55.859Z,97759.00
2018-09-22T03:41:25.587Z,97763.00
2018-09-22T03:43:55.258Z,97753.00
2018-09-22T03:46:25.016Z,97755.00
2018-09-22T03:48:55.027Z,97761.00
2018-09-22T03:51:24.691Z,97761.00
2018-09-22T03:53:58.397Z,97743.00
2018-09-22T03:56:28.276Z,97749.00
2018-09-22T03:58:58.251Z,97751.00
2018-09-22T04:01:28.215Z,97760.00
2018-09-22T04:03:58.299Z,97764.00
2018-09-22T04:06:28.175Z,97752.00
2018-09-22T04:08:58.062Z,97749.00
2018-09-22T04:11:27.667Z,97757.00
2018-09-22T04:13:57.360Z,97757.00
2018-09-22T04:16:27.152Z,97747.00
2018-09-22T04:19:02.724Z,97747.00
2018-09-22T04:21:32.658Z,97748.00
2018-09-22T04:24:11.364Z,97752.00
2018-09-22T04:26:41.167Z,97775.00
2018-09-22T04:29:10.830Z,97796.00
2018-09-22T04:31:40.542Z,97814.00
2018-09-22T04:34:19.183Z,97809.00
2018-09-22T04:36:48.991Z,97790.00
2018-09-22T04:39:18.827Z,97787.00
2018-09-22T04:41:48.818Z,97786.00
2018-09-22T04:44:18.627Z,97792.00
2018-09-22T04:46:48.349Z,97787.00
2018-09-22T04:49:18.206Z,97782.00
2018-09-22T04:51:47.951Z,97780.00
2018-09-22T04:54:17.639Z,97784.00
2018-09-22T04:56:47.354Z,97778.00
2018-09-22T04:59:17.220Z,97777.00
2018-09-22T05:01:46.882Z,97767.00
2018-09-22T05:04:16.581Z,97760.00
2018-09-22T05:06:46.267Z,97757.00
2018-09-22T05:09:16.059Z,97763.00
2018-09-22T05:11:45.870Z,97760.00
2018-09-22T05:14:15.556Z,97751.00
2018-09-22T05:16:45.284Z,97746.00
2018-09-22T05:19:15.223Z,97736.00
2018-09-22T05:21:44.921Z,97743.00
2018-09-22T05:24:14.995Z,97744.00
2018-09-22T05:26:45.827Z,97742.00
2018-09-22T05:29:15.459Z,97745.00
2018-09-22T05:31:45.255Z,97757.00
2018-09-22T05:34:14.966Z,97762.00
2018-09-22T05:36:51.011Z,97762.00
2018-09-22T05:39:20.936Z,97766.00
2018-09-22T05:41:50.675Z,97776.00
2018-09-22T05:44:20.243Z,97771.00
2018-09-22T05:46:49.931Z,97766.00
2018-09-22T05:49:24.544Z,97752.00
2018-09-22T05:51:54.243Z,97749.00
2018-09-22T05:54:23.851Z,97742.00
2018-09-22T05:56:53.535Z,97748.00
2018-09-22T05:59:23.271Z,97748.00
2018-09-22T06:01:52.996Z,97749.00
2018-09-22T06:04:22.822Z,97754.00
2018-09-22T06:06:52.508Z,97757.00
2018-09-22T06:09:22.199Z,97751.00
2018-09-22T06:11:51.879Z,97751.00
2018-09-22T06:14:21.468Z,97760.00
2018-09-22T06:16:51.105Z,97755.00
2018-09-22T06:19:20.799Z,97751.00
2018-09-22T06:21:50.446Z,97752.00
2018-09-22T06:24:20.162Z,97751.00
2018-09-22T06:26:49.886Z,97756.00
2018-09-22T06:29:19.551Z,97763.00
2018-09-22T06:31:49.368Z,97770.00
2018-09-22T06:34:18.827Z,97765.00
2018-09-22T06:36:50.276Z,97754.00
2018-09-22T06:39:19.810Z,97752.00
2018-09-22T06:41:49.200Z,97752.00
2018-09-22T06:44:18.565Z,97763.00
2018-09-22T06:46:47.901Z,97782.00
2018-09-22T06:49:18.081Z,97778.00
2018-09-22T06:51:47.423Z,97774.00
2018-09-22T06:54:16.869Z,97778.00
2018-09-22T06:56:46.237Z,97772.00
2018-09-22T06:59:15.625Z,97768.00
2018-09-22T07:01:44.963Z,97749.00
2018-09-22T07:04:14.318Z,97752.00
2018-09-22T07:06:44.223Z,97742.00
2018-09-22T07:09:23.373Z,97744.00
2018-09-22T07:11:54.185Z,97756.00
2018-09-22T07:14:23.512Z,97764.00
2018-09-22T07:16:52.905Z,97755.00
2018-09-22T07:19:22.314Z,97768.00
2018-09-22T07:21:57.446Z,97774.00
2018-09-22T07:24:32.181Z,97780.00
2018-09-22T07:27:01.503Z,97773.00
2018-09-22T07:29:40.838Z,97781.00
2018-09-22T07:32:12.574Z,97793.00
2018-09-22T07:34:42.440Z,97792.00
2018-09-22T07:37:12.195Z,97805.00
2018-09-22T07:39:43.169Z,97808.00
2018-09-22T07:42:13.545Z,97802.00
2018-09-22T07:44:43.300Z,97802.00
2018-09-22T07:47:13.074Z,97810.00
2018-09-22T07:49:42.987Z,97809.00
2018-09-22T07:52:12.662Z,97799.00
2018-09-22T07:54:42.350Z,97798.00
2018-09-22T07:57:12.074Z,97800.00
2018-09-22T07:59:41.740Z,97807.00
2018-09-22T08:02:11.457Z,97801.00
2018-09-22T08:04:41.015Z,97799.00
2018-09-22T08:07:10.619Z,97803.00
2018-09-22T08:09:40.486Z,97798.00
2018-09-22T08:12:10.077Z,97811.00
2018-09-22T08:14:58.772Z,97813.00
2018-09-22T08:17:28.579Z,97814.00
2018-09-22T08:19:58.515Z,97816.00
2018-09-22T08:22:28.847Z,97807.00
2018-09-22T08:24:58.477Z,97812.00
2018-09-22T08:27:28.454Z,97804.00
2018-09-22T08:29:58.120Z,97807.00
2018-09-22T08:32:28.041Z,97803.00
2018-09-22T08:34:57.619Z,97807.00
2018-09-22T08:37:28.229Z,97812.00
2018-09-22T08:39:58.019Z,97803.00
2018-09-22T08:42:48.775Z,97795.00
2018-09-22T08:45:18.939Z,97802.00
2018-09-22T08:47:59.275Z,97801.00
2018-09-22T08:50:28.982Z,97801.00
2018-09-22T08:52:58.758Z,97806.00
2018-09-22T08:55:29.270Z,97804.00
2018-09-22T08:57:59.053Z,97797.00
2018-09-22T09:00:29.017Z,97797.00
2018-09-22T09:02:59.848Z,97791.00
2018-09-22T09:05:29.631Z,97787.00
2018-09-22T09:08:00.763Z,97785.00
2018-09-22T09:10:30.880Z,97776.00
2018-09-22T09:13:00.598Z,97787.00
2018-09-22T09:15:30.274Z,97787.00
2018-09-22T09:18:00.037Z,97794.00
2018-09-22T09:20:29.699Z,97799.00
2018-09-22T09:23:06.278Z,97800.00
2018-09-22T09:25:35.914Z,97790.00
2018-09-22T09:28:14.216Z,97785.00
2018-09-22T09:30:44.479Z,97795.00
2018-09-22T09:33:14.397Z,97787.00
2018-09-22T09:35:44.246Z,97776.00
2018-09-22T09:38:14.277Z,97768.00
2018-09-22T09:40:44.020Z,97752.00
2018-09-22T09:43:13.701Z,97754.00
2018-09-22T09:45:43.755Z,97745.00
2018-09-22T09:48:15.596Z,97738.00
2018-09-22T09:50:47.269Z,97736.00
2018-09-22T09:53:17.064Z,97729.00
2018-09-22T09:55:46.804Z,97727.00
2018-09-22T09:58:17.574Z,97723.00
2018-09-22T10:00:48.207Z,97723.00
2018-09-22T10:03:18.712Z,97728.00
2018-09-22T10:05:48.870Z,97740.00
2018-09-22T10:08:18.653Z,97737.00
2018-09-22T10:10:48.642Z,97747.00
2018-09-22T10:13:18.691Z,97744.00
2018-09-22T10:15:48.363Z,97739.00
2018-09-22T10:18:19.183Z,97738.00
2018-09-22T10:21:00.542Z,97736.00
2018-09-22T10:23:30.377Z,97738.00
2018-09-22T10:26:00.396Z,97738.00
2018-09-22T10:28:30.294Z,97740.00
2018-09-22T10:31:00.226Z,97733.00
2018-09-22T10:33:29.949Z,97728.00
2018-09-22T10:35:59.986Z,97736.00
2018-09-22T10:38:42.855Z,97735.00
2018-09-22T10:41:12.539Z,97735.00
2018-09-22T10:43:42.270Z,97729.00
2018-09-22T10:46:11.993Z,97720.00
2018-09-22T10:48:41.639Z,97709.00
2018-09-22T10:51:11.590Z,97711.00
2018-09-22T10:53:49.948Z,97693.00
2018-09-22T10:56:19.946Z,97679.00
2018-09-22T10:58:49.818Z,97681.00
2018-09-22T11:01:19.754Z,97681.00
2018-09-22T11:03:55.842Z,97675.00
2018-09-22T11:06:25.962Z,97682.00
2018-09-22T11:08:55.730Z,97676.00
2018-09-22T11:11:25.520Z,97679.00
2018-09-22T11:13:55.672Z,97673.00
2018-09-22T11:16:25.366Z,97662.00
2018-09-22T11:18:55.127Z,97653.00
2018-09-22T11:21:24.782Z,97651.00
2018-09-22T11:23:54.462Z,97662.00
2018-09-22T11:26:24.658Z,97657.00
2018-09-22T11:28:54.534Z,97659.00
2018-09-22T11:31:24.242Z,97653.00
2018-09-22T11:33:59.979Z,97649.00
2018-09-22T11:36:29.689Z,97653.00
2018-09-22T11:38:59.690Z,97652.00
2018-09-22T11:41:29.580Z,97649.00
2018-09-22T11:43:59.952Z,97635.00
2018-09-22T11:46:30.670Z,97640.00
2018-09-22T11:49:00.978Z,97629.00
2018-09-22T11:51:30.756Z,97630.00
2018-09-22T11:54:02.586Z,97625.00
2018-09-22T11:56:32.648Z,97624.00
2018-09-22T11:59:02.952Z,97621.00
2018-09-22T12:01:33.226Z,97614.00
2018-09-22T12:04:03.654Z,97608.00
2018-09-22T12:06:33.379Z,97604.00
2018-09-22T12:09:03.094Z,97596.00
2018-09-22T12:11:32.769Z,97598.00
2018-09-22T12:14:02.367Z,97601.00
2018-09-22T12:16:33.423Z,97596.00
2018-09-22T12:19:03.078Z,97597.00
2018-09-22T12:21:46.147Z,97591.00
2018-09-22T12:24:15.863Z,97594.00
2018-09-22T12:26:52.412Z,97585.00
2018-09-22T12:29:22.007Z,97577.00
2018-09-22T12:31:51.790Z,97577.00
2018-09-22T12:34:22.035Z,97571.00
2018-09-22T12:36:51.590Z,97566.00
2018-09-22T12:39:21.186Z,97557.00
2018-09-22T12:41:50.983Z,97549.00
2018-09-22T12:44:20.655Z,97538.00
2018-09-22T12:46:50.263Z,97529.00
2018-09-22T12:49:33.440Z,97521.00
2018-09-22T12:52:03.210Z,97521.00
2018-09-22T12:54:32.963Z,97522.00
2018-09-22T12:57:02.920Z,97525.00
2018-09-22T12:59:33.284Z,97524.00
2018-09-22T13:02:02.885Z,97531.00
2018-09-22T13:04:32.551Z,97539.00
2018-09-22T13:07:02.197Z,97535.00
2018-09-22T13:09:31.834Z,97540.00
2018-09-22T13:12:01.490Z,97532.00
2018-09-22T13:14:31.163Z,97536.00
2018-09-22T13:17:01.354Z,97528.00
2018-09-22T13:19:31.890Z,97536.00
2018-09-22T13:22:01.537Z,97524.00
2018-09-22T13:24:31.153Z,97530.00
2018-09-22T13:27:01.007Z,97524.00
2018-09-22T13:29:30.707Z,97514.00
2018-09-22T13:32:00.383Z,97518.00
2018-09-22T13:34:30.518Z,97521.00
2018-09-22T13:37:00.454Z,97527.00
2018-09-22T13:39:30.341Z,97526.00
2018-09-22T13:42:01.636Z,97526.00
2018-09-22T13:44:31.486Z,97520.00
2018-09-22T13:47:01.174Z,97519.00
2018-09-22T13:49:31.073Z,97515.00
2018-09-22T13:52:00.788Z,97522.00
2018-09-22T13:54:31.331Z,97526.00
2018-09-22T13:57:01.435Z,97523.00
2018-09-22T14:02:32.238Z,97512.00
2018-09-22T14:05:06.201Z,97503.00
2018-09-22T14:07:36.090Z,97507.00
2018-09-22T14:10:06.107Z,97510.00
2018-09-22T14:12:36.187Z,97495.00
2018-09-22T14:15:05.965Z,97489.00
2018-09-22T14:17:35.712Z,97481.00
2018-09-22T14:20:06.975Z,97474.00
2018-09-22T14:22:36.967Z,97460.00
2018-09-22T14:25:06.711Z,97459.00
2018-09-22T14:27:36.478Z,97474.00
2018-09-22T14:30:06.666Z,97468.00
2018-09-22T14:32:36.693Z,97475.00
2018-09-22T14:35:33.312Z,97479.00
2018-09-22T14:38:03.293Z,97478.00
2018-09-22T14:40:33.431Z,97473.00
2018-09-22T14:43:03.057Z,97470.00
2018-09-22T14:45:34.410Z,97475.00
2018-09-22T14:48:15.409Z,97469.00
2018-09-22T14:50:46.564Z,97468.00
2018-09-22T14:53:18.952Z,97461.00
2018-09-22T14:55:50.037Z,97461.00
2018-09-22T14:58:19.598Z,97456.00
2018-09-22T15:00:49.469Z,97460.00
2018-09-22T15:03:19.371Z,97448.00
2018-09-22T15:05:49.083Z,97455.00
2018-09-22T15:08:19.254Z,97452.00
2018-09-22T15:10:49.164Z,97445.00
2018-09-22T15:13:24.816Z,97441.00
2018-09-22T15:15:55.875Z,97451.00
2018-09-22T15:18:25.468Z,97460.00
2018-09-22T15:20:55.106Z,97455.00
2018-09-22T15:23:24.851Z,97447.00
2018-09-22T15:25:54.666Z,97445.00
2018-09-22T15:28:24.307Z,97436.00
2018-09-22T15:30:54.046Z,97437.00
2018-09-22T15:33:23.714Z,97437.00
2018-09-22T15:35:53.372Z,97434.00
2018-09-22T15:38:23.450Z,97439.00
2018-09-22T15:40:53.273Z,97433.00
2018-09-22T15:43:23.357Z,97439.00
2018-09-22T15:45:53.073Z,97438.00
2018-09-22T15:48:22.865Z,97432.00
2018-09-22T15:54:17.200Z,97419.00
2018-09-22T15:56:46.986Z,97411.00
2018-09-22T15:59:16.745Z,97409.00
2018-09-22T16:02:12.771Z,97410.00
2018-09-22T16:04:42.512Z,97409.00
2018-09-22T16:07:12.283Z,97404.00
2018-09-22T16:09:42.078Z,97396.00
2018-09-22T16:12:11.896Z,97396.00
2018-09-22T16:14:50.085Z,97405.00
2018-09-22T16:17:20.385Z,97405.00
2018-09-22T16:19:50.420Z,97404.00
2018-09-22T16:22:20.403Z,97387.00
2018-09-22T16:24:50.222Z,97383.00
2018-09-22T16:27:19.982Z,97368.00
2018-09-22T16:29:49.583Z,97375.00
2018-09-22T16:32:19.229Z,97376.00
2018-09-22T16:34:48.906Z,97377.00
2018-09-22T16:37:19.724Z,97385.00
2018-09-22T16:39:49.403Z,97381.00
2018-09-22T16:42:19.168Z,97384.00
2018-09-22T16:44:48.821Z,97381.00
2018-09-22T16:47:18.532Z,97378.00
2018-09-22T16:49:48.668Z,97383.00
2018-09-22T16:52:18.334Z,97376.00
2018-09-22T16:54:48.103Z,97367.00
2018-09-22T16:57:18.220Z,97375.00
2018-09-22T16:59:47.905Z,97381.00
2018-09-22T17:02:17.550Z,97385.00
2018-09-22T17:04:47.217Z,97382.00
2018-09-22T17:07:16.861Z,97382.00
2018-09-22T17:09:46.571Z,97379.00
2018-09-22T17:12:16.381Z,97377.00
2018-09-22T17:14:46.314Z,97377.00
2018-09-22T17:17:16.028Z,97378.00
2018-09-22T17:19:45.988Z,97393.00
2018-09-22T17:22:15.914Z,97387.00
2018-09-22T17:24:47.777Z,97386.00
2018-09-22T17:27:17.529Z,97405.00
2018-09-22T17:29:47.119Z,97404.00
2018-09-22T17:32:16.852Z,97410.00
2018-09-22T17:34:46.631Z,97424.00
2018-09-22T17:37:16.371Z,97425.00
2018-09-22T17:39:46.014Z,97425.00
2018-09-22T17:42:15.691Z,97423.00
2018-09-22T17:44:45.302Z,97423.00
2018-09-22T17:47:15.045Z,97414.00
2018-09-22T17:49:45.864Z,97413.00
2018-09-22T17:52:15.483Z,97407.00
2018-09-22T17:54:45.205Z,97413.00
2018-09-22T17:57:14.860Z,97419.00
2018-09-22T17:59:44.670Z,97418.00
2018-09-22T18:02:14.441Z,97405.00
2018-09-22T18:04:44.545Z,97420.00
2018-09-22T18:07:14.727Z,97416.00
2018-09-22T18:09:44.440Z,97418.00
2018-09-22T18:12:14.254Z,97416.00
2018-09-22T18:14:43.957Z,97422.00
2018-09-22T18:17:14.238Z,97432.00
2018-09-22T18:19:44.159Z,97421.00
2018-09-22T18:22:13.789Z,97414.00
2018-09-22T18:24:43.509Z,97421.00
2018-09-22T18:27:13.469Z,97433.00
2018-09-22T18:29:43.199Z,97430.00
2018-09-22T18:32:12.841Z,97413.00
2018-09-22T18:34:42.457Z,97411.00
2018-09-22T18:37:12.248Z,97420.00
2018-09-22T18:39:42.095Z,97425.00
2018-09-22T18:42:11.798Z,97428.00
2018-09-22T18:44:47.658Z,97427.00
2018-09-22T18:47:17.398Z,97428.00
2018-09-22T18:49:47.031Z,97426.00
2018-09-22T18:52:17.546Z,97421.00
2018-09-22T18:55:10.058Z,97419.00
2018-09-22T18:57:39.777Z,97432.00
2018-09-22T19:00:09.691Z,97432.00
2018-09-22T19:02:50.519Z,97435.00
2018-09-22T19:05:30.207Z,97436.00
2018-09-22T19:08:01.454Z,97441.00
2018-09-22T19:10:44.766Z,97443.00
2018-09-22T19:13:28.378Z,97447.00
2018-09-22T19:16:03.050Z,97464.00
2018-09-22T19:18:36.419Z,97457.00
2018-09-22T19:21:20.479Z,97451.00
2018-09-22T19:23:55.287Z,97447.00
2018-09-22T19:26:30.443Z,97454.00
2018-09-22T19:29:14.351Z,97452.00
2018-09-22T19:31:49.405Z,97450.00
2018-09-22T19:34:25.140Z,97447.00
2018-09-22T19:37:32.125Z,97459.00
2018-09-22T19:43:08.089Z,97466.00
2018-09-22T19:45:44.733Z,97459.00
2018-09-22T19:48:21.150Z,97475.00
2018-09-22T19:51:02.890Z,97475.00
2018-09-22T19:53:32.630Z,97466.00
2018-09-22T19:56:02.294Z,97463.00
2018-09-22T19:58:31.966Z,97471.00
2018-09-22T20:01:01.643Z,97455.00
2018-09-22T20:03:31.261Z,97437.00
2018-09-22T20:06:00.990Z,97446.00
2018-09-22T20:08:30.673Z,97449.00
2018-09-22T20:11:00.502Z,97448.00
2018-09-22T20:13:30.512Z,97450.00
2018-09-22T20:16:12.410Z,97455.00
2018-09-22T20:18:42.153Z,97463.00
2018-09-22T20:21:11.957Z,97457.00
2018-09-22T20:23:41.638Z,97448.00
2018-09-22T20:26:11.310Z,97436.00
2018-09-22T20:28:41.009Z,97441.00
2018-09-22T20:31:10.754Z,97442.00
2018-09-22T20:33:40.721Z,97443.00
2018-09-22T20:36:10.616Z,97448.00
2018-09-22T20:38:40.867Z,97448.00
2018-09-22T20:41:10.939Z,97444.00
2018-09-22T20:43:40.790Z,97449.00
2018-09-22T20:46:10.514Z,97458.00
2018-09-22T20:48:40.434Z,97460.00
2018-09-22T20:51:10.277Z,97455.00
2018-09-22T20:53:39.933Z,97455.00
2018-09-22T20:56:09.957Z,97456.00
2018-09-22T20:58:40.062Z,97454.00
2018-09-22T21:01:10.440Z,97458.00
2018-09-22T21:03:49.100Z,97459.00
2018-09-22T21:06:19.414Z,97456.00
2018-09-22T21:08:49.328Z,97462.00
2018-09-22T21:11:19.353Z,97474.00
2018-09-22T21:13:49.623Z,97470.00
2018-09-22T21:16:19.290Z,97457.00
2018-09-22T21:18:49.303Z,97464.00
2018-09-22T21:21:19.985Z,97471.00
2018-09-22T21:23:50.214Z,97474.00
2018-09-22T21:26:20.055Z,97483.00
2018-09-22T21:28:51.589Z,97486.00
2018-09-22T21:31:24.312Z,97482.00
2018-09-22T21:33:55.125Z,97480.00
2018-09-22T21:36:31.286Z,97479.00
2018-09-22T21:39:03.125Z,97472.00
2018-09-22T21:41:34.046Z,97488.00
2018-09-22T21:44:05.150Z,97477.00
2018-09-22T21:46:35.867Z,97477.00
2018-09-22T21:49:07.728Z,97483.00
2018-09-22T21:51:40.923Z,97490.00
2018-09-22T21:54:11.180Z,97492.00
2018-09-22T21:56:42.108Z,97492.00
2018-09-22T21:59:16.163Z,97473.00
2018-09-22T22:01:58.804Z,97500.00
2018-09-22T22:04:29.604Z,97504.00
2018-09-22T22:06:59.433Z,97496.00
2018-09-22T22:09:29.437Z,97498.00
2018-09-22T22:11:59.252Z,97505.00
2018-09-22T22:14:28.981Z,97517.00
2018-09-22T22:16:58.880Z,97522.00
2018-09-22T22:19:28.681Z,97534.00
2018-09-22T22:21:58.636Z,97537.00
2018-09-22T22:24:28.211Z,97536.00
2018-09-22T22:26:57.970Z,97549.00
2018-09-22T22:29:27.822Z,97551.00
2018-09-22T22:31:58.907Z,97547.00
2018-09-22T22:34:28.987Z,97545.00
2018-09-22T22:36:58.810Z,97539.00
2018-09-22T22:39:28.488Z,97536.00
2018-09-22T22:41:58.254Z,97542.00
2018-09-22T22:44:28.162Z,97532.00
2018-09-22T22:46:57.766Z,97544.00
2018-09-22T22:49:27.575Z,97542.00
2018-09-22T22:52:09.703Z,97524.00
2018-09-22T22:54:39.445Z,97527.00
2018-09-22T22:57:09.151Z,97520.00
2018-09-22T22:59:38.847Z,97517.00
2018-09-22T23:02:08.648Z,97508.00
2018-09-22T23:04:38.290Z,97509.00
2018-09-22T23:07:08.094Z,97513.00
2018-09-22T23:09:37.859Z,97517.00
2018-09-22T23:12:07.687Z,97530.00
2018-09-22T23:14:37.433Z,97523.00
2018-09-22T23:17:07.330Z,97523.00
2018-09-22T23:19:37.025Z,97522.00
2018-09-22T23:22:07.055Z,97533.00
2018-09-22T23:24:36.799Z,97526.00
2018-09-22T23:27:06.606Z,97504.00
2018-09-22T23:29:36.285Z,97516.00
2018-09-22T23:32:06.528Z,97523.00
2018-09-22T23:34:47.211Z,97526.00
2018-09-22T23:37:16.979Z,97536.00
2018-09-22T23:39:46.635Z,97547.00
2018-09-22T23:42:16.328Z,97542.00
2018-09-22T23:44:46.047Z,97541.00
2018-09-22T23:47:15.871Z,97539.00
2018-09-22T23:49:45.618Z,97537.00
2018-09-22T23:52:15.386Z,97541.00
2018-09-22T23:54:45.152Z,97553.00
2018-09-22T23:57:15.949Z,97559.00
2018-09-22T23:59:45.749Z,97551.00
